createdAt,value
2019-05-02T00:01:57.155Z,21.10
2019-05-02T00:04:26.783Z,20.97
2019-05-02T00:07:09.719Z,21.07
2019-05-02T00:09:47.437Z,21.50
2019-05-02T00:12:16.110Z,21.27
2019-05-02T00:14:45.696Z,21.97
2019-05-02T00:17:20.353Z,21.20
2019-05-02T00:19:49.850Z,21.47
2019-05-02T00:22:20.051Z,21.27
2019-05-02T00:24:49.836Z,21.60
2019-05-02T00:27:19.326Z,21.20
2019-05-02T00:29:48.906Z,22.30
2019-05-02T00:32:22.245Z,21.13
2019-05-02T00:34:49.535Z,22.00
2019-05-02T00:37:24.384Z,22.13
2019-05-02T00:39:50.535Z,21.97
2019-05-02T00:42:22.594Z,21.37
2019-05-02T00:44:51.380Z,21.97
2019-05-02T00:47:31.009Z,22.50
2019-05-02T00:50:00.427Z,21.27
2019-05-02T00:52:32.878Z,21.17
2019-05-02T00:55:01.093Z,22.43
2019-05-02T00:57:33.537Z,23.10
2019-05-02T01:00:03.675Z,22.40
2019-05-02T01:02:35.852Z,22.03
2019-05-02T01:05:06.752Z,23.17
2019-05-02T01:07:36.192Z,21.87
2019-05-02T01:10:07.179Z,22.70
2019-05-02T01:12:40.014Z,23.00
2019-05-02T01:15:08.681Z,20.97
2019-05-02T01:17:39.243Z,20.77
2019-05-02T01:20:09.233Z,21.57
2019-05-02T01:22:38.723Z,22.10
2019-05-02T01:25:14.940Z,21.30
2019-05-02T01:27:44.692Z,21.57
2019-05-02T01:30:25.487Z,22.10
2019-05-02T01:33:06.448Z,21.10
2019-05-02T01:35:50.992Z,21.60
2019-05-02T01:38:26.561Z,21.60
2019-05-02T01:40:55.918Z,21.73
2019-05-02T01:43:27.707Z,21.33
2019-05-02T01:45:57.281Z,21.93
2019-05-02T01:48:26.858Z,20.17
2019-05-02T01:50:56.304Z,20.50
2019-05-02T01:53:29.238Z,20.97
2019-05-02T01:55:59.186Z,22.50
2019-05-02T01:58:28.218Z,21.03
2019-05-02T02:00:57.651Z,21.67
2019-05-02T02:03:27.285Z,21.40
2019-05-02T02:05:56.822Z,21.33
2019-05-02T02:08:27.224Z,21.03
2019-05-02T02:10:58.244Z,21.47
2019-05-02T02:13:31.374Z,21.17
2019-05-02T02:16:00.224Z,20.37
2019-05-02T02:18:31.995Z,20.13
2019-05-02T02:21:09.351Z,20.30
2019-05-02T02:23:49.670Z,20.60
2019-05-02T02:26:19.043Z,19.63
2019-05-02T02:28:48.554Z,19.73
2019-05-02T02:31:19.764Z,20.53
2019-05-02T02:33:51.485Z,19.03
2019-05-02T02:36:30.214Z,20.70
2019-05-02T02:38:57.585Z,21.10
2019-05-02T02:41:27.090Z,19.73
2019-05-02T02:44:02.976Z,19.20
2019-05-02T02:46:38.099Z,19.70
2019-05-02T02:49:05.477Z,20.20
2019-05-02T02:51:34.997Z,20.23
2019-05-02T02:54:05.835Z,20.23
2019-05-02T02:56:40.433Z,20.47
2019-05-02T02:59:06.837Z,20.67
2019-05-02T03:01:36.286Z,20.67
2019-05-02T03:04:09.491Z,21.50
2019-05-02T03:06:38.352Z,22.00
2019-05-02T03:09:08.689Z,23.33
2019-05-02T03:11:39.911Z,23.60
2019-05-02T03:14:11.064Z,22.57
2019-05-02T03:16:47.236Z,22.70
2019-05-02T03:19:14.774Z,22.87
2019-05-02T03:22:01.030Z,23.67
2019-05-02T03:24:27.311Z,23.43
2019-05-02T03:26:58.361Z,23.53
2019-05-02T03:29:39.706Z,23.37
2019-05-02T03:32:14.274Z,22.37
2019-05-02T03:34:45.298Z,23.10
2019-05-02T03:37:09.597Z,23.57
2019-05-02T03:39:34.768Z,24.97
2019-05-02T03:42:05.096Z,22.93
2019-05-02T03:44:35.719Z,23.47
2019-05-02T03:47:05.364Z,22.83
2019-05-02T03:49:41.045Z,23.30
2019-05-02T03:52:06.259Z,22.40
2019-05-02T03:54:49.084Z,22.30
2019-05-02T03:57:07.567Z,21.80
2019-05-02T03:59:39.722Z,22.57
2019-05-02T04:02:14.148Z,21.50
2019-05-02T04:04:40.364Z,21.27
2019-05-02T04:07:10.188Z,22.60
2019-05-02T04:09:42.353Z,22.10
2019-05-02T04:12:18.938Z,21.43
2019-05-02T04:14:43.369Z,22.57
2019-05-02T04:17:13.040Z,22.20
2019-05-02T04:19:43.612Z,21.53
2019-05-02T04:22:14.515Z,21.17
2019-05-02T04:24:47.809Z,22.37
2019-05-02T04:27:15.789Z,20.40
2019-05-02T04:29:45.207Z,21.30
2019-05-02T04:32:14.910Z,20.60
2019-05-02T04:34:48.960Z,20.87
2019-05-02T04:37:15.535Z,20.03
2019-05-02T04:39:44.981Z,20.47
2019-05-02T04:42:19.470Z,20.37
2019-05-02T04:45:08.785Z,21.00
2019-05-02T04:47:21.335Z,20.83
2019-05-02T04:49:52.071Z,21.43
2019-05-02T04:52:21.831Z,21.13
2019-05-02T04:54:51.284Z,21.40
2019-05-02T04:57:26.289Z,20.47
2019-05-02T05:00:04.982Z,21.57
2019-05-02T05:02:30.831Z,20.50
2019-05-02T05:04:54.141Z,20.37
2019-05-02T05:07:24.251Z,21.47
2019-05-02T05:10:02.660Z,21.37
2019-05-02T05:12:24.808Z,21.23
2019-05-02T05:14:54.232Z,23.40
2019-05-02T05:17:25.015Z,22.27
2019-05-02T05:19:54.790Z,22.47
2019-05-02T05:22:24.236Z,22.63
2019-05-02T05:25:12.282Z,23.27
2019-05-02T05:27:41.540Z,23.50
2019-05-02T05:30:15.425Z,22.33
2019-05-02T05:32:42.239Z,21.93
2019-05-02T05:35:14.727Z,22.30
2019-05-02T05:37:51.419Z,23.07
2019-05-02T05:40:17.661Z,23.60
2019-05-02T05:42:48.079Z,23.40
2019-05-02T05:45:17.757Z,23.50
2019-05-02T05:47:47.888Z,23.40
2019-05-02T05:50:17.774Z,23.93
2019-05-02T05:52:47.355Z,22.93
2019-05-02T05:55:20.348Z,24.17
2019-05-02T05:57:50.130Z,23.30
2019-05-02T06:00:22.985Z,24.33
2019-05-02T06:02:56.089Z,24.27
2019-05-02T06:05:21.519Z,24.27
2019-05-02T06:07:50.933Z,23.70
2019-05-02T06:10:20.389Z,23.90
2019-05-02T06:12:49.865Z,23.83
2019-05-02T06:15:19.447Z,22.60
2019-05-02T06:17:48.939Z,22.43
2019-05-02T06:20:18.521Z,23.17
2019-05-02T06:22:47.941Z,22.87
2019-05-02T06:25:17.534Z,23.80
2019-05-02T06:27:46.957Z,25.33
2019-05-02T06:30:17.484Z,23.17
2019-05-02T06:32:50.122Z,23.40
2019-05-02T06:35:21.250Z,23.37
2019-05-02T06:37:50.112Z,22.93
2019-05-02T06:40:20.442Z,23.17
2019-05-02T06:42:49.955Z,23.13
2019-05-02T06:45:19.619Z,22.73
2019-05-02T06:47:49.134Z,23.57
2019-05-02T06:50:18.687Z,23.10
2019-05-02T06:52:48.226Z,23.13
2019-05-02T06:55:17.808Z,27.17
2019-05-02T06:57:47.469Z,22.37
2019-05-02T07:00:17.526Z,21.60
2019-05-02T07:02:47.082Z,20.80
2019-05-02T07:05:16.651Z,22.57
2019-05-02T07:07:46.199Z,21.23
2019-05-02T07:10:19.970Z,21.43
2019-05-02T07:12:51.185Z,22.13
2019-05-02T07:15:25.755Z,22.07
2019-05-02T07:17:59.084Z,22.30
2019-05-02T07:20:28.527Z,21.47
2019-05-02T07:22:59.582Z,23.13
2019-05-02T07:25:29.000Z,23.40
2019-05-02T07:27:58.512Z,22.00
2019-05-02T07:30:30.116Z,21.77
2019-05-02T07:33:01.149Z,21.53
2019-05-02T07:35:30.397Z,22.40
2019-05-02T07:37:59.836Z,21.43
2019-05-02T07:40:29.349Z,21.80
2019-05-02T07:42:58.778Z,21.70
2019-05-02T07:45:28.299Z,22.30
2019-05-02T07:47:57.747Z,22.57
2019-05-02T07:50:27.260Z,22.17
2019-05-02T07:52:56.750Z,22.30
2019-05-02T07:55:30.598Z,22.30
2019-05-02T07:58:02.035Z,21.17
2019-05-02T08:00:32.079Z,22.40
2019-05-02T08:03:04.986Z,22.40
2019-05-02T08:05:33.487Z,22.93
2019-05-02T08:08:03.011Z,23.87
2019-05-02T08:10:32.506Z,21.73
2019-05-02T08:13:02.088Z,22.83
2019-05-02T08:15:31.675Z,23.23
2019-05-02T08:18:01.090Z,22.30
2019-05-02T08:20:30.623Z,22.10
2019-05-02T08:23:00.159Z,22.63
2019-05-02T08:25:29.608Z,22.93
2019-05-02T08:28:15.815Z,22.57
2019-05-02T08:30:45.365Z,22.27
2019-05-02T08:33:14.893Z,23.27
2019-05-02T08:35:44.869Z,23.63
2019-05-02T08:38:17.798Z,24.10
2019-05-02T08:40:47.866Z,23.37
2019-05-02T08:43:16.701Z,23.40
2019-05-02T08:45:46.124Z,24.40
2019-05-02T08:48:15.573Z,25.13
2019-05-02T08:50:45.120Z,23.77
2019-05-02T08:53:19.728Z,24.83
2019-05-02T08:55:46.716Z,23.93
2019-05-02T08:58:16.307Z,23.37
2019-05-02T09:00:47.388Z,23.57
2019-05-02T09:03:17.044Z,24.40
2019-05-02T09:05:47.468Z,23.83
2019-05-02T09:08:17.178Z,24.63
2019-05-02T09:10:46.767Z,23.87
2019-05-02T09:13:23.633Z,23.90
2019-05-02T09:15:51.308Z,23.80
2019-05-02T09:18:18.594Z,23.63
2019-05-02T09:20:52.639Z,23.90
2019-05-02T09:23:19.162Z,24.00
2019-05-02T09:25:48.596Z,23.63
2019-05-02T09:28:22.493Z,23.43
2019-05-02T09:31:05.085Z,24.90
2019-05-02T09:33:32.245Z,24.37
2019-05-02T09:36:02.425Z,25.83
2019-05-02T09:38:32.849Z,23.10
2019-05-02T09:41:15.345Z,23.20
2019-05-02T09:43:38.977Z,24.83
2019-05-02T09:46:07.316Z,24.00
2019-05-02T09:48:36.569Z,24.70
2019-05-02T09:51:12.523Z,24.17
2019-05-02T09:53:37.270Z,24.03
2019-05-02T09:56:06.835Z,24.23
2019-05-02T09:58:36.351Z,23.27
2019-05-02T10:01:11.859Z,24.50
2019-05-02T10:03:42.385Z,23.60
2019-05-02T10:06:13.894Z,23.90
2019-05-02T10:08:46.276Z,23.73
2019-05-02T10:11:16.854Z,25.33
2019-05-02T10:13:45.561Z,24.70
2019-05-02T10:16:18.010Z,24.27
2019-05-02T10:18:46.203Z,25.30
2019-05-02T10:21:17.170Z,25.57
2019-05-02T10:23:51.826Z,24.07
2019-05-02T10:26:20.242Z,24.43
2019-05-02T10:28:50.762Z,24.73
2019-05-02T10:31:21.854Z,24.70
2019-05-02T10:33:52.951Z,24.30
2019-05-02T10:36:23.967Z,24.27
2019-05-02T10:38:58.852Z,23.43
2019-05-02T10:41:24.780Z,23.73
2019-05-02T10:43:57.748Z,22.60
2019-05-02T10:46:27.783Z,24.13
2019-05-02T10:49:18.259Z,23.03
2019-05-02T10:51:49.608Z,23.93
2019-05-02T10:54:20.606Z,23.63
2019-05-02T10:56:51.847Z,23.43
2019-05-02T10:59:22.108Z,23.90
2019-05-02T11:02:09.968Z,23.67
2019-05-02T11:04:42.095Z,23.27
2019-05-02T11:07:12.033Z,22.97
2019-05-02T11:09:42.033Z,22.73
2019-05-02T11:12:16.459Z,22.00
2019-05-02T11:14:46.096Z,23.47
2019-05-02T11:17:20.165Z,24.07
2019-05-02T11:20:01.898Z,23.70
2019-05-02T11:22:32.688Z,23.63
2019-05-02T11:25:02.180Z,24.23
2019-05-02T11:27:32.856Z,24.17
2019-05-02T11:30:02.791Z,24.03
2019-05-02T11:32:33.026Z,25.37
2019-05-02T11:35:03.077Z,25.80
2019-05-02T11:37:32.927Z,26.03
2019-05-02T11:40:05.778Z,25.90
2019-05-02T11:42:33.878Z,25.77
2019-05-02T11:45:04.243Z,26.87
2019-05-02T11:47:33.713Z,25.90
2019-05-02T11:50:03.478Z,26.43
2019-05-02T11:52:37.318Z,26.50
2019-05-02T11:55:06.064Z,27.93
2019-05-02T11:57:35.531Z,27.47
2019-05-02T12:00:09.073Z,26.90
2019-05-02T12:02:41.768Z,26.60
2019-05-02T12:05:14.099Z,28.37
2019-05-02T12:07:43.560Z,28.07
2019-05-02T12:10:13.222Z,27.93
2019-05-02T12:12:43.757Z,28.17
2019-05-02T12:15:13.388Z,25.43
2019-05-02T12:17:43.109Z,25.53
2019-05-02T12:20:12.825Z,25.83
2019-05-02T12:22:42.423Z,25.80
2019-05-02T12:25:12.893Z,27.53
2019-05-02T12:27:43.573Z,27.07
2019-05-02T12:30:13.835Z,27.47
2019-05-02T12:32:43.370Z,27.70
2019-05-02T12:35:13.083Z,26.90
2019-05-02T12:37:42.588Z,26.83
2019-05-02T12:40:12.598Z,26.90
2019-05-02T12:42:42.099Z,27.43
2019-05-02T12:45:12.324Z,26.40
2019-05-02T12:47:42.811Z,32.93
2019-05-02T12:50:12.801Z,26.50
2019-05-02T12:52:42.882Z,27.13
2019-05-02T12:55:12.920Z,26.53
2019-05-02T12:57:42.982Z,26.50
2019-05-02T13:00:13.476Z,26.43
2019-05-02T13:02:47.391Z,26.60
2019-05-02T13:05:18.061Z,26.43
2019-05-02T13:07:50.493Z,27.53
2019-05-02T13:10:24.271Z,27.87
2019-05-02T13:12:53.843Z,27.27
2019-05-02T13:15:23.529Z,26.80
2019-05-02T13:17:53.364Z,27.30
2019-05-02T13:20:29.165Z,26.70
2019-05-02T13:23:13.825Z,27.43
2019-05-02T13:25:43.445Z,27.10
2019-05-02T13:28:17.130Z,28.23
2019-05-02T13:30:46.704Z,27.13
2019-05-02T13:33:18.184Z,27.93
2019-05-02T13:35:52.060Z,25.50
2019-05-02T13:38:22.465Z,28.30
2019-05-02T13:40:51.997Z,28.10
2019-05-02T13:43:23.087Z,29.17
2019-05-02T13:46:02.251Z,28.57
2019-05-02T13:48:32.307Z,28.47
2019-05-02T13:51:03.907Z,29.03
2019-05-02T13:53:34.371Z,27.43
2019-05-02T13:56:23.852Z,29.97
2019-05-02T13:58:53.274Z,28.67
2019-05-02T14:01:23.130Z,29.50
2019-05-02T14:03:55.473Z,29.87
2019-05-02T14:06:30.257Z,30.97
2019-05-02T14:08:59.202Z,29.90
2019-05-02T14:11:43.492Z,29.53
2019-05-02T14:14:13.180Z,31.17
2019-05-02T14:16:42.635Z,31.70
2019-05-02T14:19:12.682Z,31.57
2019-05-02T14:21:42.392Z,29.87
2019-05-02T14:24:11.962Z,30.77
2019-05-02T14:26:43.429Z,31.53
2019-05-02T14:29:16.290Z,31.33
2019-05-02T14:31:44.273Z,31.03
2019-05-02T14:34:32.715Z,31.40
2019-05-02T14:37:02.147Z,32.63
2019-05-02T14:39:32.515Z,32.00
2019-05-02T14:42:03.724Z,33.80
2019-05-02T14:45:01.518Z,33.30
2019-05-02T14:47:04.640Z,31.30
2019-05-02T14:49:34.169Z,34.23
2019-05-02T14:52:07.051Z,35.13
2019-05-02T14:54:38.052Z,35.50
2019-05-02T14:57:21.498Z,35.53
2019-05-02T14:59:50.207Z,34.93
2019-05-02T15:02:22.874Z,35.13
2019-05-02T15:04:53.294Z,36.57
2019-05-02T15:07:26.567Z,36.23
2019-05-02T15:09:57.229Z,35.70
2019-05-02T15:12:25.105Z,37.63
2019-05-02T15:14:58.646Z,39.03
2019-05-02T15:17:27.993Z,37.80
2019-05-02T15:19:57.147Z,40.07
2019-05-02T15:22:35.843Z,40.40
2019-05-02T15:25:00.050Z,39.83
2019-05-02T15:27:40.197Z,41.30
2019-05-02T15:30:06.553Z,39.27
2019-05-02T15:32:37.281Z,40.30
2019-05-02T15:35:12.916Z,40.43
2019-05-02T15:37:42.686Z,38.63
2019-05-02T15:42:52.214Z,37.63
2019-05-02T15:45:23.761Z,37.33
2019-05-02T15:47:53.064Z,35.30
2019-05-02T15:50:25.395Z,37.53
2019-05-02T15:52:57.309Z,37.60
2019-05-02T15:55:26.808Z,36.57
2019-05-02T15:57:56.331Z,34.17
2019-05-02T16:00:27.868Z,33.67
2019-05-02T16:03:02.901Z,33.97
2019-05-02T16:05:31.957Z,34.40
2019-05-02T16:08:06.310Z,31.73
2019-05-02T16:10:38.474Z,33.77
2019-05-02T16:13:08.859Z,29.70
2019-05-02T16:15:40.540Z,32.53
2019-05-02T16:18:12.623Z,31.50
2019-05-02T16:20:47.274Z,31.03
2019-05-02T16:23:19.501Z,31.10
2019-05-02T16:25:46.659Z,28.37
2019-05-02T16:28:16.381Z,27.40
2019-05-02T16:30:47.686Z,27.40
2019-05-02T16:33:20.737Z,29.33
2019-05-02T16:35:53.494Z,24.50
2019-05-02T16:38:26.735Z,24.13
2019-05-02T16:40:55.928Z,21.87
2019-05-02T16:43:27.062Z,21.20
2019-05-02T16:45:56.594Z,22.83
2019-05-02T16:48:32.358Z,22.43
2019-05-02T16:50:58.801Z,21.70
2019-05-02T16:53:30.996Z,20.37
2019-05-02T16:56:05.512Z,19.87
2019-05-02T16:58:38.103Z,18.57
2019-05-02T17:01:07.939Z,19.20
2019-05-02T17:03:42.374Z,17.70
2019-05-02T17:06:12.373Z,20.13
2019-05-02T17:09:02.849Z,18.63
2019-05-02T17:11:38.253Z,19.80
2019-05-02T17:14:12.114Z,18.57
2019-05-02T17:16:42.136Z,19.50
2019-05-02T17:19:12.738Z,18.90
2019-05-02T17:21:53.960Z,20.13
2019-05-02T17:24:22.660Z,20.03
2019-05-02T17:26:54.093Z,21.43
2019-05-02T17:29:24.135Z,21.13
2019-05-02T17:31:59.148Z,19.77
2019-05-02T17:34:30.245Z,20.37
2019-05-02T17:37:03.231Z,20.93
2019-05-02T17:39:30.586Z,20.40
2019-05-02T17:42:00.943Z,20.87
2019-05-02T17:44:31.258Z,21.53
2019-05-02T17:47:02.405Z,21.70
2019-05-02T17:49:37.185Z,20.57
2019-05-02T17:52:20.985Z,22.13
2019-05-02T17:54:48.950Z,22.23
2019-05-02T17:57:21.549Z,22.20
2019-05-02T17:59:54.518Z,22.80
2019-05-02T18:02:23.945Z,21.87
2019-05-02T18:04:55.819Z,22.73
2019-05-02T18:07:31.671Z,23.13
2019-05-02T18:09:56.201Z,23.80
2019-05-02T18:12:25.716Z,23.67
2019-05-02T18:14:59.062Z,24.27
2019-05-02T18:17:27.557Z,24.67
2019-05-02T18:20:02.293Z,24.20
2019-05-02T18:22:34.214Z,24.33
2019-05-02T18:25:02.270Z,22.87
2019-05-02T18:27:32.046Z,21.77
2019-05-02T18:30:02.227Z,22.27
2019-05-02T18:32:33.792Z,21.67
2019-05-02T18:35:06.333Z,15.23
2019-05-02T18:37:42.839Z,10.47
2019-05-02T18:40:11.940Z,8.87
2019-05-02T18:42:42.414Z,7.73
2019-05-02T18:45:18.077Z,7.33
2019-05-02T18:47:47.660Z,7.87
2019-05-02T18:50:36.971Z,6.93
2019-05-02T18:53:08.547Z,7.47
2019-05-02T18:55:42.292Z,8.03
2019-05-02T18:58:13.071Z,8.20
2019-05-02T19:00:42.694Z,8.27
2019-05-02T19:03:16.974Z,8.77
2019-05-02T19:05:46.417Z,8.93
2019-05-02T19:08:15.145Z,10.17
2019-05-02T19:11:04.087Z,10.07
2019-05-02T19:13:19.442Z,10.33
2019-05-02T19:15:49.121Z,10.40
2019-05-02T19:18:20.250Z,10.87
2019-05-02T19:20:57.430Z,10.80
2019-05-02T19:23:24.491Z,10.50
2019-05-02T19:25:54.214Z,10.67
2019-05-02T19:28:34.692Z,11.13
2019-05-02T19:31:06.738Z,11.50
2019-05-02T19:33:37.310Z,10.80
2019-05-02T19:36:05.286Z,12.40
2019-05-02T19:38:34.971Z,12.30
2019-05-02T19:41:08.868Z,12.33
2019-05-02T19:43:40.310Z,11.83
2019-05-02T19:46:07.034Z,11.87
2019-05-02T19:48:37.410Z,12.13
2019-05-02T19:51:10.569Z,11.60
2019-05-02T19:53:39.116Z,11.17
2019-05-02T19:56:08.912Z,11.90
2019-05-02T19:58:42.794Z,12.40
2019-05-02T20:01:09.788Z,12.47
2019-05-02T20:03:39.327Z,12.27
2019-05-02T20:06:08.832Z,11.40
2019-05-02T20:08:38.358Z,12.63
2019-05-02T20:11:07.854Z,13.17
2019-05-02T20:13:37.445Z,11.87
2019-05-02T20:16:19.953Z,9.67
2019-05-02T20:18:49.758Z,7.70
2019-05-02T20:21:27.219Z,6.47
2019-05-02T20:23:52.107Z,4.73
2019-05-02T20:26:22.254Z,4.87
2019-05-02T20:28:52.786Z,5.10
2019-05-02T20:31:22.590Z,4.63
2019-05-02T20:33:53.104Z,4.93
2019-05-02T20:36:25.578Z,5.00
2019-05-02T20:38:53.837Z,5.10
2019-05-02T20:41:23.837Z,4.53
2019-05-02T20:43:53.307Z,3.70
2019-05-02T20:46:24.799Z,3.40
2019-05-02T20:48:54.250Z,2.60
2019-05-02T20:51:24.195Z,2.43
2019-05-02T20:53:53.650Z,2.60
2019-05-02T20:56:23.679Z,2.60
2019-05-02T20:58:54.769Z,3.07
2019-05-02T21:01:24.289Z,2.30
2019-05-02T21:03:53.822Z,2.60
2019-05-02T21:09:22.544Z,2.47
2019-05-02T21:11:53.699Z,2.60
2019-05-02T21:14:26.275Z,3.37
2019-05-02T21:16:55.788Z,2.80
2019-05-02T21:19:25.354Z,2.93
2019-05-02T21:21:56.558Z,2.90
2019-05-02T21:24:26.088Z,2.80
2019-05-02T21:26:57.142Z,2.73
2019-05-02T21:29:26.596Z,2.90
2019-05-02T21:31:56.104Z,2.53
2019-05-02T21:34:25.732Z,2.90
2019-05-02T21:36:55.269Z,3.00
2019-05-02T21:39:24.732Z,3.03
2019-05-02T21:41:54.252Z,3.03
2019-05-02T21:44:23.778Z,3.20
2019-05-02T21:46:53.286Z,3.27
2019-05-02T21:49:42.961Z,3.23
2019-05-02T21:52:25.348Z,3.67
2019-05-02T21:54:56.442Z,3.13
2019-05-02T21:57:27.422Z,3.37
2019-05-02T21:59:56.879Z,3.67
2019-05-02T22:02:26.550Z,3.30
2019-05-02T22:04:56.128Z,3.90
2019-05-02T22:07:25.658Z,3.50
2019-05-02T22:09:55.156Z,4.00
2019-05-02T22:12:25.052Z,3.83
2019-05-02T22:14:54.558Z,3.70
2019-05-02T22:17:24.134Z,3.97
2019-05-02T22:19:53.638Z,4.53
2019-05-02T22:22:23.098Z,4.37
2019-05-02T22:24:52.916Z,4.60
2019-05-02T22:27:22.661Z,4.17
2019-05-02T22:29:54.630Z,4.97
2019-05-02T22:32:23.416Z,5.20
2019-05-02T22:34:55.841Z,4.87
2019-05-02T22:37:25.319Z,4.60
2019-05-02T22:39:56.388Z,4.93
2019-05-02T22:42:25.916Z,4.20
2019-05-02T22:44:55.443Z,4.90
2019-05-02T22:47:25.213Z,5.33
2019-05-02T22:49:54.675Z,4.93
2019-05-02T22:52:24.116Z,4.57
2019-05-02T22:54:53.548Z,4.47
2019-05-02T22:57:23.007Z,4.37
2019-05-02T22:59:52.519Z,4.47
2019-05-02T23:02:22.142Z,4.50
2019-05-02T23:04:52.664Z,4.17
2019-05-02T23:07:22.594Z,4.87
2019-05-02T23:09:52.794Z,4.87
2019-05-02T23:12:24.899Z,4.80
2019-05-02T23:14:53.579Z,4.53
2019-05-02T23:17:23.303Z,4.43
2019-05-02T23:19:52.941Z,5.37
2019-05-02T23:22:24.834Z,4.77
2019-05-02T23:24:55.943Z,5.00
2019-05-02T23:27:31.442Z,5.07
2019-05-02T23:30:02.940Z,4.67
2019-05-02T23:32:34.092Z,4.73
2019-05-02T23:35:07.594Z,4.53
2019-05-02T23:37:37.198Z,4.87
2019-05-02T23:40:06.862Z,4.87
2019-05-02T23:42:36.808Z,4.43
2019-05-02T23:45:09.345Z,4.80
2019-05-02T23:47:38.842Z,5.33
2019-05-02T23:50:08.434Z,4.60
2019-05-02T23:52:38.651Z,4.77
2019-05-02T23:55:08.752Z,4.67
2019-05-02T23:57:38.252Z,4.70
